createdAt,value
2023-04-03T00:02:11.778Z,78.67
2023-04-03T00:04:39.567Z,77.31
2023-04-03T00:07:07.322Z,75.26
2023-04-03T00:09:35.073Z,76.21
2023-04-03T00:12:02.795Z,75.77
2023-04-03T00:14:30.462Z,78.84
2023-04-03T00:16:58.178Z,75.93
2023-04-03T00:19:27.279Z,76.51
2023-04-03T00:21:55.454Z,78.36
2023-04-03T00:24:23.428Z,78.69
2023-04-03T00:26:51.179Z,80.41
2023-04-03T00:29:18.978Z,80.82
2023-04-03T00:31:46.763Z,78.41
2023-04-03T00:34:14.392Z,77.07
2023-04-03T00:36:43.772Z,78.62
2023-04-03T00:39:11.445Z,79.93
2023-04-03T00:41:39.105Z,80.03
2023-04-03T00:44:22.145Z,78.12
2023-04-03T00:46:49.823Z,79.99
2023-04-03T00:49:17.430Z,77.38
2023-04-03T00:51:46.536Z,82.33
2023-04-03T00:54:14.501Z,81.67
2023-04-03T00:56:48.766Z,80.43
2023-04-03T00:59:19.311Z,81.33
2023-04-03T01:01:47.120Z,79.84
2023-04-03T01:04:29.135Z,79.73
2023-04-03T01:07:00.604Z,80.26
2023-04-03T01:09:28.447Z,82.70
2023-04-03T01:11:56.117Z,81.84
2023-04-03T01:14:23.757Z,82.02
2023-04-03T01:16:55.238Z,77.41
2023-04-03T01:19:24.099Z,80.68
2023-04-03T01:22:15.968Z,78.59
2023-04-03T01:24:43.606Z,78.09
2023-04-03T01:27:13.117Z,79.10
2023-04-03T01:29:42.394Z,80.43
2023-04-03T01:32:11.507Z,73.89
2023-04-03T01:34:39.260Z,72.09
2023-04-03T01:37:07.053Z,74.08
2023-04-03T01:39:34.730Z,79.28
2023-04-03T01:42:02.349Z,82.96
2023-04-03T01:44:30.073Z,81.23
2023-04-03T01:46:57.767Z,82.18
2023-04-03T01:49:26.941Z,81.68
2023-04-03T01:51:54.591Z,80.26
2023-04-03T01:54:22.279Z,82.78
2023-04-03T01:56:49.936Z,80.46
2023-04-03T01:59:19.094Z,84.75
2023-04-03T02:01:47.014Z,84.15
2023-04-03T02:04:15.259Z,84.65
2023-04-03T02:06:44.368Z,85.09
2023-04-03T02:09:12.104Z,84.29
2023-04-03T02:11:39.732Z,83.97
2023-04-03T02:14:07.729Z,86.01
2023-04-03T02:16:35.423Z,85.18
2023-04-03T02:19:03.138Z,86.31
2023-04-03T02:21:30.920Z,84.43
2023-04-03T02:24:00.073Z,84.00
2023-04-03T02:26:27.844Z,79.16
2023-04-03T02:28:55.533Z,77.30
2023-04-03T02:31:23.281Z,74.20
2023-04-03T02:33:51.121Z,75.87
2023-04-03T02:36:19.114Z,80.67
2023-04-03T02:38:47.327Z,78.11
2023-04-03T02:41:16.374Z,79.42
2023-04-03T02:43:43.990Z,80.75
2023-04-03T02:46:11.812Z,78.55
2023-04-03T02:48:39.606Z,80.42
2023-04-03T02:51:07.497Z,80.36
2023-04-03T02:53:35.130Z,80.41
2023-04-03T02:56:02.759Z,81.68
2023-04-03T02:58:31.779Z,77.56
2023-04-03T03:00:59.474Z,78.19
2023-04-03T03:03:27.242Z,77.16
2023-04-03T03:06:03.516Z,81.85
2023-04-03T03:08:31.554Z,78.65
2023-04-03T03:10:59.220Z,79.45
2023-04-03T03:13:27.192Z,82.38
2023-04-03T03:15:56.387Z,84.51
2023-04-03T03:18:24.104Z,85.57
2023-04-03T03:20:53.610Z,85.57
2023-04-03T03:23:21.828Z,83.41
2023-04-03T03:25:49.529Z,84.91
2023-04-03T03:28:17.226Z,85.37
2023-04-03T03:30:44.854Z,83.31
2023-04-03T03:33:13.908Z,84.84
2023-04-03T03:35:41.970Z,86.56
2023-04-03T03:38:09.651Z,87.04
2023-04-03T03:40:37.294Z,84.94
2023-04-03T03:43:05.301Z,85.60
2023-04-03T03:45:33.269Z,83.67
2023-04-03T03:48:01.265Z,84.51
2023-04-03T03:50:30.405Z,85.72
2023-04-03T03:52:58.248Z,86.02
2023-04-03T03:55:26.134Z,88.52
2023-04-03T03:57:53.862Z,84.75
2023-04-03T04:00:21.734Z,83.42
2023-04-03T04:02:49.564Z,85.19
2023-04-03T04:05:17.411Z,85.95
2023-04-03T04:07:46.423Z,83.31
2023-04-03T04:10:14.803Z,84.14
2023-04-03T04:12:42.549Z,85.95
2023-04-03T04:15:11.566Z,82.27
2023-04-03T04:17:39.208Z,78.42
2023-04-03T04:20:07.684Z,80.16
2023-04-03T04:22:35.312Z,80.76
2023-04-03T04:25:04.990Z,82.19
2023-04-03T04:27:32.636Z,83.34
2023-04-03T04:30:00.352Z,82.39
2023-04-03T04:32:28.020Z,81.53
2023-04-03T04:34:55.879Z,84.39
2023-04-03T04:37:23.658Z,84.95
2023-04-03T04:39:51.333Z,83.59
2023-04-03T04:42:20.365Z,81.84
2023-04-03T04:44:47.997Z,83.99
2023-04-03T04:47:15.802Z,84.80
2023-04-03T04:49:59.178Z,83.28
2023-04-03T04:52:26.794Z,82.46
2023-04-03T04:55:17.548Z,82.83
2023-04-03T04:57:46.587Z,82.93
2023-04-03T05:00:15.901Z,85.06
2023-04-03T05:02:43.574Z,83.89
2023-04-03T05:05:11.458Z,84.94
2023-04-03T05:07:39.232Z,84.17
2023-04-03T05:10:08.312Z,83.35
2023-04-03T05:12:36.374Z,84.92
2023-04-03T05:15:06.335Z,87.38
2023-04-03T05:17:34.031Z,85.83
2023-04-03T05:20:01.780Z,86.94
2023-04-03T05:22:29.400Z,85.92
2023-04-03T05:24:57.014Z,82.90
2023-04-03T05:27:25.573Z,79.11
2023-04-03T05:29:54.886Z,81.25
2023-04-03T05:32:24.400Z,83.16
2023-04-03T05:34:52.726Z,83.08
2023-04-03T05:37:20.566Z,81.00
2023-04-03T05:39:48.644Z,80.11
2023-04-03T05:42:16.905Z,82.42
2023-04-03T05:44:45.225Z,80.29
2023-04-03T05:47:13.317Z,81.17
2023-04-03T05:49:42.653Z,82.82
2023-04-03T05:52:15.940Z,80.96
2023-04-03T05:54:44.068Z,81.34
2023-04-03T05:57:12.989Z,82.71
2023-04-03T05:59:40.677Z,83.72
2023-04-03T06:02:08.547Z,81.36
2023-04-03T06:04:36.334Z,79.67
2023-04-03T06:07:05.544Z,83.31
2023-04-03T06:09:33.266Z,81.46
2023-04-03T06:12:16.137Z,83.33
2023-04-03T06:14:43.788Z,81.74
2023-04-03T06:17:13.520Z,80.04
2023-04-03T06:19:45.450Z,82.13
2023-04-03T06:22:15.057Z,82.47
2023-04-03T06:24:42.834Z,81.86
2023-04-03T06:27:11.904Z,81.69
2023-04-03T06:33:16.055Z,80.18
2023-04-03T06:35:43.743Z,81.02
2023-04-03T06:38:13.242Z,78.81
2023-04-03T06:40:41.257Z,74.62
2023-04-03T06:43:09.463Z,79.93
2023-04-03T06:45:37.818Z,77.91
2023-04-03T06:51:20.951Z,73.69
2023-04-03T06:53:50.932Z,74.34
2023-04-03T06:56:35.253Z,76.22
2023-04-03T06:59:03.232Z,75.85
2023-04-03T07:01:32.034Z,72.92
2023-04-03T07:03:59.833Z,72.39
2023-04-03T07:06:28.610Z,75.41
2023-04-03T07:08:58.106Z,70.33
2023-04-03T07:11:25.941Z,74.42
2023-04-03T07:13:53.803Z,72.24
2023-04-03T07:18:59.071Z,67.68
2023-04-03T07:21:27.024Z,67.65
2023-04-03T07:23:55.346Z,64.40
2023-04-03T07:26:24.685Z,64.27
2023-04-03T07:28:52.549Z,63.64
2023-04-03T07:31:20.884Z,62.39
2023-04-03T07:33:51.040Z,63.90
2023-04-03T07:36:21.566Z,66.26
2023-04-03T07:38:50.332Z,65.32
2023-04-03T07:41:21.369Z,61.81
2023-04-03T07:43:51.812Z,66.20
2023-04-03T07:46:21.708Z,62.86
2023-04-03T07:48:49.818Z,61.19
2023-04-03T07:51:17.614Z,58.54
2023-04-03T07:53:45.341Z,62.33
2023-04-03T07:56:13.003Z,62.04
2023-04-03T07:58:47.753Z,61.44
2023-04-03T08:01:19.232Z,63.05
2023-04-03T08:03:47.049Z,61.99
2023-04-03T08:06:21.666Z,59.83
2023-04-03T08:08:54.520Z,58.77
2023-04-03T08:11:22.396Z,62.45
2023-04-03T08:13:51.405Z,56.64
2023-04-03T08:16:24.686Z,57.64
2023-04-03T08:18:53.389Z,58.74
2023-04-03T08:21:21.406Z,60.15
2023-04-03T08:23:55.145Z,58.49
2023-04-03T08:26:23.672Z,58.78
2023-04-03T08:28:51.596Z,55.43
2023-04-03T08:31:21.732Z,55.70
2023-04-03T08:33:50.278Z,53.12
2023-04-03T08:36:21.277Z,53.27
2023-04-03T08:38:49.673Z,50.09
2023-04-03T08:41:25.396Z,54.47
2023-04-03T08:44:00.062Z,53.75
2023-04-03T08:46:38.338Z,55.66
2023-04-03T08:49:07.112Z,53.71
2023-04-03T08:51:35.145Z,55.46
2023-04-03T08:54:05.553Z,54.73
2023-04-03T08:56:34.080Z,52.42
2023-04-03T08:59:06.418Z,52.47
2023-04-03T09:01:38.616Z,52.66
2023-04-03T09:04:12.882Z,50.31
2023-04-03T09:06:45.549Z,46.47
2023-04-03T09:09:16.746Z,48.95
2023-04-03T09:11:53.064Z,48.86
2023-04-03T09:14:26.113Z,48.14
2023-04-03T09:16:58.325Z,49.19
2023-04-03T09:19:45.676Z,47.96
2023-04-03T09:22:19.346Z,47.92
2023-04-03T09:24:47.924Z,46.77
2023-04-03T09:27:27.783Z,45.68
2023-04-03T09:29:56.576Z,46.57
2023-04-03T09:32:29.946Z,46.52
2023-04-03T09:35:03.803Z,48.59
2023-04-03T09:37:41.533Z,45.22
2023-04-03T09:40:39.638Z,46.93
2023-04-03T09:43:24.138Z,45.53
2023-04-03T09:45:53.055Z,45.44
2023-04-03T09:48:24.399Z,45.40
2023-04-03T09:50:59.902Z,44.08
2023-04-03T09:53:31.433Z,43.26
2023-04-03T09:55:59.997Z,44.31
2023-04-03T09:58:42.848Z,44.46
2023-04-03T10:01:26.059Z,44.91
2023-04-03T10:04:11.812Z,44.68
2023-04-03T10:06:47.735Z,42.50
2023-04-03T10:09:21.486Z,39.72
2023-04-03T10:12:05.726Z,41.44
2023-04-03T10:14:34.600Z,40.52
2023-04-03T10:17:13.307Z,40.91
2023-04-03T10:19:44.666Z,41.48
2023-04-03T10:22:21.278Z,42.14
2023-04-03T10:24:56.486Z,42.70
2023-04-03T10:27:32.204Z,42.33
2023-04-03T10:30:04.708Z,41.51
2023-04-03T10:32:45.295Z,43.14
2023-04-03T10:35:28.235Z,41.58
2023-04-03T10:38:03.960Z,42.46
2023-04-03T10:44:46.151Z,43.69
2023-04-03T10:47:18.711Z,42.66
2023-04-03T10:49:59.289Z,43.88
2023-04-03T10:52:35.460Z,47.19
2023-04-03T10:55:11.658Z,46.80
2023-04-03T10:57:40.029Z,46.84
2023-04-03T11:00:10.504Z,44.78
2023-04-03T11:02:40.926Z,46.94
2023-04-03T11:05:17.910Z,46.70
2023-04-03T11:07:50.276Z,46.62
2023-04-03T11:10:27.972Z,43.07
2023-04-03T11:15:40.985Z,44.54
2023-04-03T11:18:11.830Z,43.13
2023-04-03T11:20:41.030Z,44.52
2023-04-03T11:23:16.272Z,46.85
2023-04-03T11:25:45.912Z,46.46
2023-04-03T11:28:14.695Z,43.83
2023-04-03T11:30:47.652Z,43.03
2023-04-03T11:33:25.911Z,47.23
2023-04-03T11:35:55.183Z,45.72
2023-04-03T11:38:27.544Z,48.89
2023-04-03T11:40:56.597Z,44.48
2023-04-03T11:43:27.778Z,43.38
2023-04-03T11:45:59.695Z,47.77
2023-04-03T11:48:51.059Z,46.19
2023-04-03T11:51:42.661Z,47.42
2023-04-03T11:54:45.452Z,45.01
2023-04-03T11:57:48.033Z,47.07
2023-04-03T12:00:51.691Z,48.68
2023-04-03T12:03:51.981Z,42.64
2023-04-03T12:06:45.547Z,43.92
2023-04-03T12:09:25.766Z,40.50
2023-04-03T12:11:55.092Z,41.30
2023-04-03T12:14:25.287Z,41.35
2023-04-03T12:16:54.848Z,44.77
2023-04-03T12:19:42.506Z,44.18
2023-04-03T12:22:16.885Z,41.66
2023-04-03T12:24:46.310Z,42.66
2023-04-03T12:27:31.352Z,42.51
2023-04-03T12:30:04.547Z,41.84
2023-04-03T12:32:45.797Z,42.90
2023-04-03T12:35:21.691Z,43.97
2023-04-03T12:38:06.111Z,45.59
2023-04-03T12:40:38.098Z,44.17
2023-04-03T12:43:22.863Z,44.96
2023-04-03T12:45:56.000Z,43.02
2023-04-03T12:48:27.370Z,42.40
2023-04-03T12:50:57.000Z,39.90
2023-04-03T12:53:27.153Z,40.72
2023-04-03T12:55:56.413Z,40.15
2023-04-03T12:58:27.298Z,40.40
2023-04-03T13:01:03.541Z,44.68
2023-04-03T13:03:32.215Z,44.14
2023-04-03T13:06:02.871Z,46.37
2023-04-03T13:08:31.507Z,43.11
2023-04-03T13:11:02.620Z,46.74
2023-04-03T13:13:31.989Z,46.53
2023-04-03T13:16:00.754Z,46.81
2023-04-03T13:18:32.231Z,43.01
2023-04-03T13:21:04.724Z,40.50
2023-04-03T13:23:33.397Z,41.97
2023-04-03T13:26:04.546Z,38.59
2023-04-03T13:28:34.629Z,38.00
2023-04-03T13:31:06.561Z,35.22
2023-04-03T13:33:59.323Z,34.73
2023-04-03T13:36:30.555Z,37.44
2023-04-03T13:39:03.518Z,41.26
2023-04-03T13:41:32.926Z,41.04
2023-04-03T13:44:26.746Z,41.12
2023-04-03T13:46:56.225Z,44.34
2023-04-03T13:49:29.798Z,45.20
2023-04-03T13:52:07.411Z,46.87
2023-04-03T13:54:38.328Z,47.84
2023-04-03T13:57:14.344Z,44.91
2023-04-03T13:59:44.195Z,39.07
2023-04-03T14:02:19.680Z,41.50
2023-04-03T14:04:51.706Z,44.60
2023-04-03T14:07:21.143Z,44.20
2023-04-03T14:09:49.090Z,39.29
2023-04-03T14:12:30.036Z,35.60
2023-04-03T14:15:00.769Z,32.61
2023-04-03T14:17:29.482Z,36.49
2023-04-03T14:19:58.011Z,34.67
2023-04-03T14:22:27.789Z,33.62
2023-04-03T14:24:56.166Z,34.22
2023-04-03T14:27:25.478Z,34.45
2023-04-03T14:29:54.415Z,37.17
2023-04-03T14:32:25.496Z,36.09
2023-04-03T14:34:54.085Z,36.68
2023-04-03T14:37:24.643Z,34.84
2023-04-03T14:39:54.382Z,32.55
2023-04-03T14:42:24.593Z,35.15
2023-04-03T14:44:52.899Z,33.79
2023-04-03T14:47:31.341Z,31.26
2023-04-03T14:50:00.431Z,35.34
2023-04-03T14:52:30.113Z,35.38
2023-04-03T14:54:58.087Z,32.66
2023-04-03T14:57:27.167Z,31.38
2023-04-03T14:59:54.943Z,32.42
2023-04-03T15:02:29.424Z,33.63
2023-04-03T15:04:58.156Z,34.02
2023-04-03T15:07:26.728Z,36.35
2023-04-03T15:09:57.130Z,35.38
2023-04-03T15:12:25.065Z,39.28
2023-04-03T15:15:00.263Z,38.05
2023-04-03T15:17:31.167Z,37.26
2023-04-03T15:19:58.976Z,34.98
2023-04-03T15:22:26.662Z,37.52
2023-04-03T15:24:54.438Z,35.36
2023-04-03T15:27:22.150Z,33.60
2023-04-03T15:30:00.172Z,33.95
2023-04-03T15:32:30.434Z,31.78
2023-04-03T15:35:00.677Z,29.46
2023-04-03T15:37:28.346Z,28.95
2023-04-03T15:39:56.306Z,32.41
2023-04-03T15:42:23.968Z,33.31
2023-04-03T15:44:51.697Z,32.98
2023-04-03T15:47:19.491Z,33.22
2023-04-03T15:49:47.160Z,30.74
2023-04-03T15:52:16.307Z,33.89
2023-04-03T15:54:44.068Z,33.79
2023-04-03T15:57:11.939Z,32.65
2023-04-03T15:59:39.689Z,31.96
2023-04-03T16:02:08.625Z,30.03
2023-04-03T16:04:36.437Z,30.52
2023-04-03T16:07:04.444Z,34.39
2023-04-03T16:09:35.012Z,28.44
2023-04-03T16:12:03.051Z,31.24
2023-04-03T16:14:31.415Z,29.16
2023-04-03T16:17:00.125Z,29.82
2023-04-03T16:19:27.980Z,31.65
2023-04-03T16:21:56.001Z,31.24
2023-04-03T16:24:23.693Z,37.86
2023-04-03T16:26:54.330Z,39.27
2023-04-03T16:29:37.284Z,34.99
2023-04-03T16:32:05.437Z,34.09
2023-04-03T16:34:33.788Z,35.69
2023-04-03T16:37:01.700Z,33.06
2023-04-03T16:39:29.536Z,33.26
2023-04-03T16:41:59.144Z,33.19
2023-04-03T16:44:27.142Z,35.46
2023-04-03T16:46:54.990Z,37.29
2023-04-03T16:49:22.939Z,35.78
2023-04-03T16:51:51.384Z,35.76
2023-04-03T16:54:19.137Z,37.26
2023-04-03T16:56:47.462Z,35.79
2023-04-03T16:59:16.565Z,37.44
2023-04-03T17:01:44.404Z,37.91
2023-04-03T17:04:12.228Z,38.07
2023-04-03T17:06:40.359Z,40.37
2023-04-03T17:09:08.246Z,40.78
2023-04-03T17:14:04.160Z,39.17
2023-04-03T17:16:35.164Z,41.25
2023-04-03T17:19:03.111Z,43.40
2023-04-03T17:21:30.963Z,43.67
2023-04-03T17:24:02.366Z,41.62
2023-04-03T17:26:30.863Z,42.43
2023-04-03T17:28:58.523Z,43.29
2023-04-03T17:31:26.288Z,44.86
2023-04-03T17:33:55.471Z,46.45
2023-04-03T17:36:23.437Z,48.63
2023-04-03T17:38:52.240Z,47.58
2023-04-03T17:41:19.912Z,47.42
2023-04-03T17:43:47.960Z,48.35
2023-04-03T17:46:16.813Z,47.37
2023-04-03T17:48:45.497Z,47.89
2023-04-03T17:51:17.152Z,48.29
2023-04-03T17:53:45.511Z,48.46
2023-04-03T17:56:15.222Z,48.35
2023-04-03T18:01:28.353Z,48.49
2023-04-03T18:03:58.007Z,49.71
2023-04-03T18:06:28.975Z,49.09
2023-04-03T18:08:59.560Z,49.86
2023-04-03T18:11:28.754Z,51.11
2023-04-03T18:14:00.274Z,51.29
2023-04-03T18:16:29.761Z,51.01
2023-04-03T18:19:17.658Z,49.62
2023-04-03T18:21:50.437Z,50.41
2023-04-03T18:24:20.152Z,49.46
2023-04-03T18:26:51.311Z,48.32
2023-04-03T18:29:19.185Z,50.20
2023-04-03T18:31:50.375Z,50.54
2023-04-03T18:34:18.068Z,50.13
2023-04-03T18:36:46.139Z,49.53
2023-04-03T18:39:15.761Z,50.40
2023-04-03T18:41:43.651Z,51.10
2023-04-03T18:44:14.616Z,50.39
2023-04-03T18:46:42.420Z,48.73
2023-04-03T18:49:10.802Z,49.16
2023-04-03T18:51:39.920Z,50.33
2023-04-03T18:54:09.747Z,49.86
2023-04-03T18:56:39.356Z,50.40
2023-04-03T18:59:07.145Z,50.03
2023-04-03T19:01:35.012Z,51.17
2023-04-03T19:04:02.842Z,50.09
2023-04-03T19:06:30.802Z,49.46
2023-04-03T19:08:59.700Z,50.35
2023-04-03T19:11:30.064Z,51.37
2023-04-03T19:14:14.300Z,52.44
2023-04-03T19:16:43.404Z,50.28
2023-04-03T19:19:11.166Z,50.46
2023-04-03T19:21:41.720Z,51.30
2023-04-03T19:24:09.948Z,51.44
2023-04-03T19:26:37.721Z,51.39
2023-04-03T19:29:06.854Z,51.07
2023-04-03T19:31:36.804Z,51.33
2023-04-03T19:34:04.989Z,51.09
2023-04-03T19:36:33.662Z,50.34
2023-04-03T19:39:01.689Z,50.72
2023-04-03T19:41:32.211Z,52.57
2023-04-03T19:43:59.936Z,52.69
2023-04-03T19:46:30.155Z,52.72
2023-04-03T19:48:58.699Z,53.34
2023-04-03T19:51:26.495Z,52.40
2023-04-03T19:53:54.639Z,51.79
2023-04-03T19:56:23.529Z,52.67
2023-04-03T19:58:54.183Z,54.42
2023-04-03T20:01:22.631Z,54.08
2023-04-03T20:03:52.216Z,53.87
2023-04-03T20:06:20.118Z,51.93
2023-04-03T20:08:47.849Z,51.71
2023-04-03T20:11:15.554Z,52.71
2023-04-03T20:13:43.273Z,54.28
2023-04-03T20:16:11.064Z,54.96
2023-04-03T20:18:39.570Z,52.92
2023-04-03T20:21:08.940Z,52.24
2023-04-03T20:26:24.619Z,55.26
2023-04-03T20:28:52.405Z,55.61
2023-04-03T20:31:20.157Z,55.45
2023-04-03T20:33:48.603Z,53.34
2023-04-03T20:36:18.237Z,53.45
2023-04-03T20:38:46.181Z,55.06
2023-04-03T20:41:13.920Z,54.01
2023-04-03T20:43:42.862Z,54.65
2023-04-03T20:46:10.846Z,53.62
2023-04-03T20:51:25.460Z,54.24
2023-04-03T20:53:53.155Z,53.60
2023-04-03T20:56:20.831Z,54.83
2023-04-03T20:58:49.588Z,54.87
2023-04-03T21:01:19.259Z,53.38
2023-04-03T21:03:48.119Z,54.08
2023-04-03T21:06:53.086Z,54.96
2023-04-03T21:09:58.530Z,54.16
2023-04-03T21:13:03.608Z,55.27
2023-04-03T21:15:51.974Z,57.73
2023-04-03T21:18:34.293Z,55.49
2023-04-03T21:21:03.103Z,54.66
2023-04-03T21:23:31.249Z,54.25
2023-04-03T21:25:59.023Z,53.58
2023-04-03T21:28:27.424Z,55.83
2023-04-03T21:30:55.390Z,53.05
2023-04-03T21:33:24.912Z,54.24
2023-04-03T21:35:57.779Z,54.79
2023-04-03T21:38:27.386Z,56.08
2023-04-03T21:40:57.761Z,55.53
2023-04-03T21:43:25.591Z,53.69
2023-04-03T21:45:54.387Z,54.26
2023-04-03T21:48:22.335Z,56.24
2023-04-03T21:50:52.526Z,56.16
2023-04-03T21:53:20.904Z,55.60
2023-04-03T21:55:55.381Z,56.02
2023-04-03T21:58:23.151Z,53.66
2023-04-03T22:00:51.100Z,56.08
2023-04-03T22:03:22.306Z,56.08
2023-04-03T22:05:51.434Z,55.56
2023-04-03T22:08:19.465Z,57.23
2023-04-03T22:10:47.529Z,55.41
2023-04-03T22:13:15.380Z,57.56
2023-04-03T22:15:44.111Z,57.05
2023-04-03T22:18:12.360Z,57.76
2023-04-03T22:20:40.184Z,58.58
2023-04-03T22:23:09.330Z,58.02
2023-04-03T22:25:37.017Z,57.55
2023-04-03T22:28:04.842Z,57.95
2023-04-03T22:30:32.549Z,56.32
2023-04-03T22:33:00.310Z,58.13
2023-04-03T22:35:27.988Z,57.88
2023-04-03T22:37:56.361Z,58.94
2023-04-03T22:40:25.596Z,56.95
2023-04-03T22:42:54.069Z,57.91
2023-04-03T22:45:21.726Z,57.27
2023-04-03T22:48:01.635Z,57.41
2023-04-03T22:50:29.688Z,57.13
2023-04-03T22:52:57.377Z,57.33
2023-04-03T22:55:26.668Z,57.59
2023-04-03T22:57:54.382Z,58.61
2023-04-03T23:00:22.181Z,59.15
2023-04-03T23:02:49.863Z,57.73
2023-04-03T23:05:17.882Z,57.33
2023-04-03T23:07:45.594Z,59.36
2023-04-03T23:10:13.381Z,59.54
2023-04-03T23:12:51.742Z,58.49
2023-04-03T23:15:19.687Z,58.49
2023-04-03T23:17:49.720Z,59.09
2023-04-03T23:20:17.655Z,60.08
2023-04-03T23:22:45.670Z,59.14
2023-04-03T23:25:13.425Z,58.26
2023-04-03T23:27:41.346Z,60.01
2023-04-03T23:30:11.589Z,59.13
2023-04-03T23:32:39.276Z,59.68
2023-04-03T23:35:07.748Z,59.03
2023-04-03T23:37:35.975Z,58.58
2023-04-03T23:40:03.724Z,59.48
2023-04-03T23:42:31.461Z,59.64
2023-04-03T23:44:59.121Z,59.78
2023-04-03T23:47:28.554Z,60.76
2023-04-03T23:49:56.293Z,60.60
2023-04-03T23:52:24.008Z,60.29
2023-04-03T23:54:51.717Z,60.96
2023-04-03T23:57:19.489Z,62.08
2023-04-03T23:59:47.183Z,61.98
